Time;durP1;ratioP1;P1;durP2;ratioP2;P2;SDS_P1;SDS_P2;PMS_P1;PMS_P2;Temp;Humidity;BMP_temperature;BMP_pressure;BME280_temperature;BME280_humidity;BME280_pressure;Samples;Min_cycle;Max_cycle;Signal;HPM_P1;HPM_P2
2021/11/04 00:01:02;;;;;;;3.70;1.10;;;23.60;48.80;;;;;;5031267;28;20044;-67
2021/11/04 00:03:28;;;;;;;1.88;0.77;;;23.50;48.70;;;;;;5026289;28;20041;-67
2021/11/04 00:05:54;;;;;;;4.45;0.98;;;23.40;48.60;;;;;;5021358;28;20041;-67
2021/11/04 00:08:20;;;;;;;3.03;1.02;;;23.40;48.80;;;;;;5017360;28;20434;-68
2021/11/04 00:10:46;;;;;;;3.25;1.10;;;23.30;48.80;;;;;;5029028;28;20658;-68
2021/11/04 00:13:12;;;;;;;2.88;1.00;;;23.30;48.80;;;;;;5023593;28;20037;-68
2021/11/04 00:15:38;;;;;;;2.83;1.00;;;23.20;48.70;;;;;;5023855;28;20660;-68
2021/11/04 00:18:04;;;;;;;2.90;0.90;;;23.20;48.80;;;;;;5019392;28;20065;-68
2021/11/04 00:20:30;;;;;;;3.58;1.10;;;23.10;48.70;;;;;;5024480;28;20040;-68
2021/11/04 00:22:56;;;;;;;4.43;1.27;;;23.10;48.80;;;;;;5022195;28;20099;-68
2021/11/04 00:25:22;;;;;;;2.83;0.85;;;23.00;48.70;;;;;;5022802;28;20076;-68
2021/11/04 00:27:49;;;;;;;2.35;0.85;;;23.00;48.80;;;;;;5021537;28;20502;-68
2021/11/04 00:30:16;;;;;;;2.88;0.90;;;22.90;48.60;;;;;;5018710;28;20621;-66
2021/11/04 00:32:52;;;;;;;3.08;1.10;;;22.90;48.80;;;;;;5039987;28;20046;-68
2021/11/04 00:35:19;;;;;;;3.17;1.05;;;22.80;48.70;;;;;;5019623;28;20120;-68
2021/11/04 00:37:46;;;;;;;3.22;1.10;;;22.80;48.90;;;;;;5018006;28;20067;-68
2021/11/04 00:40:14;;;;;;;3.55;1.10;;;22.70;48.60;;;;;;5025121;28;20440;-68
2021/11/04 00:42:41;;;;;;;3.05;1.10;;;22.70;48.70;;;;;;5023772;28;20068;-68
2021/11/04 00:45:07;;;;;;;3.35;1.13;;;22.70;48.70;;;;;;5013732;28;20456;-68
2021/11/04 00:47:34;;;;;;;3.47;1.15;;;22.70;48.80;;;;;;5021960;28;20091;-67
2021/11/04 00:49:59;;;;;;;3.47;1.20;;;22.60;48.60;;;;;;5022782;28;20065;-67
2021/11/04 00:52:25;;;;;;;2.83;1.00;;;22.60;48.60;;;;;;5024997;28;20470;-68
2021/11/04 00:54:51;;;;;;;4.13;1.30;;;22.60;48.70;;;;;;5019100;28;20120;-68
2021/11/04 00:57:17;;;;;;;2.83;1.00;;;22.50;48.50;;;;;;5020549;28;20038;-67
2021/11/04 00:59:43;;;;;;;3.28;1.10;;;22.50;48.60;;;;;;5022477;28;20148;-68
2021/11/04 01:02:09;;;;;;;2.88;1.02;;;22.50;48.60;;;;;;5022217;28;20142;-68
2021/11/04 01:04:34;;;;;;;2.83;1.10;;;22.50;48.70;;;;;;5018397;28;20060;-67
2021/11/04 01:07:00;;;;;;;3.10;1.10;;;22.40;48.60;;;;;;5023663;28;20530;-67
2021/11/04 01:09:26;;;;;;;3.20;1.27;;;22.40;48.60;;;;;;5023720;28;20034;-67
2021/11/04 01:11:51;;;;;;;3.05;1.20;;;22.40;48.60;;;;;;5021144;28;20041;-67
2021/11/04 01:14:17;;;;;;;3.25;1.20;;;22.40;48.70;;;;;;5018677;28;20104;-68
2021/11/04 01:16:43;;;;;;;3.72;1.30;;;22.30;48.50;;;;;;5022383;28;20042;-68
2021/11/04 01:19:11;;;;;;;3.63;1.33;;;22.30;48.60;;;;;;5019522;28;20038;-67
2021/11/04 01:21:37;;;;;;;3.10;1.20;;;22.30;48.60;;;;;;5023082;28;20045;-67
2021/11/04 01:24:03;;;;;;;3.75;1.40;;;22.30;48.60;;;;;;5016937;28;20064;-67
2021/11/04 01:26:29;;;;;;;4.32;1.50;;;22.30;48.70;;;;;;5024113;28;20045;-68
2021/11/04 01:28:55;;;;;;;3.90;1.40;;;22.30;48.70;;;;;;5024633;28;20029;-68
2021/11/04 01:31:20;;;;;;;3.97;1.27;;;22.20;48.50;;;;;;5030707;28;20041;-68
2021/11/04 01:33:46;;;;;;;3.40;1.30;;;22.20;48.50;;;;;;5017720;28;20445;-68
2021/11/04 01:36:12;;;;;;;3.45;1.40;;;22.20;48.60;;;;;;5024718;28;20033;-68
2021/11/04 01:38:38;;;;;;;3.47;1.40;;;22.20;48.50;;;;;;5021832;28;20121;-68
2021/11/04 01:41:03;;;;;;;4.50;1.60;;;22.20;48.60;;;;;;5021224;28;20033;-67
2021/11/04 01:43:29;;;;;;;4.72;1.70;;;22.20;48.60;;;;;;5017022;28;20610;-68
2021/11/04 01:45:55;;;;;;;4.03;1.45;;;22.10;48.40;;;;;;5022462;28;20029;-68
2021/11/04 01:48:21;;;;;;;4.10;1.45;;;22.10;48.40;;;;;;5022301;28;20042;-68
2021/11/04 01:50:47;;;;;;;4.00;1.40;;;22.10;48.40;;;;;;5022629;28;20413;-68
2021/11/04 01:53:13;;;;;;;3.95;1.40;;;22.10;48.50;;;;;;5017940;28;20124;-68
2021/11/04 01:55:38;;;;;;;4.10;1.40;;;22.10;48.40;;;;;;5021732;28;20041;-68
2021/11/04 01:58:04;;;;;;;4.05;1.70;;;22.10;48.50;;;;;;5023588;28;20501;-68
2021/11/04 02:00:32;;;;;;;3.78;1.30;;;22.10;48.40;;;;;;5021534;28;20033;-69
2021/11/04 02:03:10;;;;;;;4.15;1.67;;;22.10;48.50;;;;;;5019358;28;20044;-69
2021/11/04 02:05:48;;;;;;;4.18;1.60;;;22.00;48.40;;;;;;5021908;28;20048;-68
2021/11/04 02:08:55;;;;;;;3.75;1.30;;;22.00;48.30;;;;;;5023999;28;20706;-69
2021/11/04 02:11:24;;;;;;;4.60;1.50;;;22.00;48.30;;;;;;5019837;28;20053;-68
2021/11/04 02:13:58;;;;;;;4.07;1.60;;;22.00;48.40;;;;;;5021805;28;20048;-68
2021/11/04 02:16:26;;;;;;;4.80;1.50;;;22.00;48.30;;;;;;5022215;28;20255;-68
2021/11/04 02:18:56;;;;;;;4.82;1.92;;;22.00;48.40;;;;;;5018996;28;20474;-68
2021/11/04 02:21:39;;;;;;;4.80;1.75;;;22.00;48.30;;;;;;5022163;28;20038;-68
2021/11/04 02:24:16;;;;;;;4.55;1.70;;;22.00;48.40;;;;;;5019230;28;20032;-69
2021/11/04 02:26:43;;;;;;;5.75;2.10;;;22.00;48.30;;;;;;5020098;28;20084;-68
2021/11/04 02:29:10;;;;;;;4.55;1.80;;;22.00;48.30;;;;;;5020014;28;20038;-68
2021/11/04 02:31:35;;;;;;;4.45;1.73;;;21.90;48.20;;;;;;5016245;28;20041;-69
2021/11/04 02:34:02;;;;;;;5.45;2.00;;;21.90;48.20;;;;;;5019279;28;20060;-68
2021/11/04 02:36:28;;;;;;;4.70;1.90;;;21.90;48.10;;;;;;5021653;28;20076;-69
2021/11/04 02:38:54;;;;;;;4.78;1.88;;;21.90;48.10;;;;;;5020584;28;20995;-67
2021/11/04 02:41:21;;;;;;;5.20;1.88;;;21.90;48.10;;;;;;5018615;28;20046;-68
2021/11/04 02:43:47;;;;;;;3.95;1.52;;;21.90;48.20;;;;;;5017834;28;20042;-68
2021/11/04 02:46:13;;;;;;;4.50;1.65;;;21.90;48.10;;;;;;5017826;28;20109;-68
2021/11/04 02:48:41;;;;;;;4.95;1.90;;;21.90;48.20;;;;;;5015563;28;20063;-68
2021/11/04 02:51:07;;;;;;;4.53;1.70;;;21.90;48.10;;;;;;5021381;28;20160;-68
2021/11/04 02:53:33;;;;;;;5.22;2.00;;;21.90;48.10;;;;;;5019745;28;20068;-67
2021/11/04 02:55:59;;;;;;;4.72;1.90;;;21.90;48.10;;;;;;5027492;28;20829;-68
2021/11/04 02:58:26;;;;;;;3.92;1.63;;;21.80;47.90;;;;;;5023885;28;20112;-67
2021/11/04 03:01:03;;;;;;;4.68;1.88;;;21.80;47.90;;;;;;5017943;28;20041;-69
2021/11/04 03:03:29;;;;;;;4.97;1.83;;;21.80;47.90;;;;;;5019503;28;20533;-68
2021/11/04 03:05:54;;;;;;;4.18;1.70;;;21.80;47.90;;;;;;5020081;28;20050;-68
2021/11/04 03:08:20;;;;;;;4.43;1.80;;;21.80;48.00;;;;;;5018910;28;20107;-68
2021/11/04 03:10:46;;;;;;;4.85;1.90;;;21.80;47.90;;;;;;5021310;28;20046;-68
2021/11/04 03:13:12;;;;;;;3.83;1.42;;;21.80;47.90;;;;;;5019719;28;20045;-68
2021/11/04 03:15:40;;;;;;;4.47;1.70;;;21.80;48.00;;;;;;5036404;28;20040;-68
2021/11/04 03:18:07;;;;;;;3.75;1.58;;;21.80;47.90;;;;;;5021204;28;20071;-67
2021/11/04 03:20:34;;;;;;;4.00;1.60;;;21.80;48.00;;;;;;5024847;28;20033;-68
2021/11/04 03:23:01;;;;;;;4.28;1.63;;;21.80;47.90;;;;;;5021214;28;20040;-67
2021/11/04 03:25:27;;;;;;;3.72;1.58;;;21.80;47.90;;;;;;5022225;28;20044;-67
2021/11/04 03:27:54;;;;;;;3.90;1.50;;;21.80;47.90;;;;;;5016996;28;20402;-68
2021/11/04 03:30:25;;;;;;;4.40;1.80;;;21.70;47.70;;;;;;5014524;28;20092;-68
2021/11/04 03:32:55;;;;;;;4.28;1.70;;;21.70;47.70;;;;;;5020656;28;20046;-68
2021/11/04 03:35:22;;;;;;;4.05;1.60;;;21.70;47.70;;;;;;5020390;28;20057;-68
2021/11/04 03:37:50;;;;;;;5.28;1.67;;;21.70;47.70;;;;;;5015437;28;20045;-68
2021/11/04 03:40:16;;;;;;;4.70;1.80;;;21.70;47.60;;;;;;5017289;28;20106;-68
2021/11/04 03:42:43;;;;;;;4.18;1.70;;;21.70;47.50;;;;;;5020940;28;20038;-68
2021/11/04 03:45:11;;;;;;;4.35;1.83;;;21.70;47.60;;;;;;5024736;28;20392;-68
2021/11/04 03:47:37;;;;;;;5.22;1.90;;;21.70;47.60;;;;;;5016676;28;20070;-68
2021/11/04 03:50:06;;;;;;;5.78;1.70;;;21.70;47.60;;;;;;5023668;28;20041;-68
2021/11/04 03:52:32;;;;;;;4.80;1.70;;;21.70;47.60;;;;;;5019969;28;20033;-68
2021/11/04 03:54:58;;;;;;;6.68;1.75;;;21.70;47.60;;;;;;5021331;28;20034;-68
2021/11/04 03:57:26;;;;;;;4.22;1.48;;;21.70;47.50;;;;;;5015616;28;20060;-68
2021/11/04 03:59:53;;;;;;;5.40;2.00;;;21.70;47.70;;;;;;5019315;28;20155;-69
2021/11/04 04:02:23;;;;;;;4.30;1.60;;;21.70;47.60;;;;;;5018136;28;20056;-68
2021/11/04 04:04:54;;;;;;;4.32;1.50;;;21.70;47.50;;;;;;5019280;28;20041;-68
2021/11/04 04:07:26;;;;;;;4.80;1.75;;;21.70;47.60;;;;;;5018820;28;20115;-69
2021/11/04 04:09:52;;;;;;;4.32;1.70;;;21.70;47.50;;;;;;5022876;28;20056;-68
2021/11/04 04:12:18;;;;;;;5.05;1.92;;;21.70;48.30;;;;;;5017694;28;20489;-68
2021/11/04 04:14:44;;;;;;;4.53;1.70;;;21.70;47.50;;;;;;5016456;28;20042;-69
2021/11/04 04:17:10;;;;;;;4.30;1.70;;;21.60;47.30;;;;;;5022665;28;20099;-67
2021/11/04 04:19:36;;;;;;;4.63;1.65;;;21.60;47.50;;;;;;5024142;28;20584;-68
2021/11/04 04:22:03;;;;;;;3.85;1.50;;;21.60;47.30;;;;;;5021175;28;20038;-68
2021/11/04 04:24:29;;;;;;;4.40;1.73;;;21.60;47.30;;;;;;5014345;28;20042;-68
2021/11/04 04:26:54;;;;;;;4.10;1.67;;;21.60;47.40;;;;;;5018413;28;20056;-69
2021/11/04 04:29:20;;;;;;;4.93;1.52;;;21.60;47.40;;;;;;5019665;28;20136;-68
2021/11/04 04:31:46;;;;;;;5.97;1.65;;;21.60;48.20;;;;;;5017711;28;20041;-67
2021/11/04 04:34:12;;;;;;;5.07;1.60;;;21.60;47.90;;;;;;5017307;28;20038;-67
2021/11/04 04:36:38;;;;;;;4.63;1.67;;;21.60;47.70;;;;;;5015546;28;20395;-68
2021/11/04 04:39:04;;;;;;;6.80;1.85;;;21.60;47.60;;;;;;5018324;28;20053;-68
2021/11/04 04:41:30;;;;;;;4.53;1.90;;;21.60;47.50;;;;;;5016834;28;20050;-67
2021/11/04 04:43:55;;;;;;;9.60;2.05;;;21.60;47.40;;;;;;5017610;28;20076;-68
2021/11/04 04:46:21;;;;;;;5.60;2.03;;;21.60;47.30;;;;;;5021657;28;20050;-68
2021/11/04 04:48:48;;;;;;;5.50;1.90;;;21.60;47.40;;;;;;5026174;28;20064;-68
2021/11/04 04:51:14;;;;;;;7.05;2.05;;;21.60;47.30;;;;;;5024907;28;20034;-68
2021/11/04 04:53:40;;;;;;;4.93;1.70;;;21.60;47.30;;;;;;5022635;28;20056;-69
2021/11/04 04:56:06;;;;;;;7.60;1.88;;;21.60;47.40;;;;;;5023974;28;20046;-68
2021/11/04 04:58:31;;;;;;;4.85;2.00;;;21.60;47.30;;;;;;5023525;28;20065;-68
2021/11/04 05:00:57;;;;;;;6.57;2.00;;;21.60;47.10;;;;;;5022488;28;20383;-68
2021/11/04 05:03:23;;;;;;;5.53;1.95;;;21.60;47.20;;;;;;5018810;28;20037;-68
2021/11/04 05:05:48;;;;;;;6.03;2.00;;;21.60;47.20;;;;;;5022830;28;20568;-68
2021/11/04 05:08:14;;;;;;;5.47;2.00;;;21.60;47.90;;;;;;5025738;28;20050;-68
2021/11/04 05:10:40;;;;;;;5.47;2.58;;;21.60;47.00;;;;;;5024873;28;20045;-68
2021/11/04 05:13:06;;;;;;;5.03;2.10;;;21.60;47.10;;;;;;5020952;28;20068;-68
2021/11/04 05:15:31;;;;;;;5.78;2.45;;;21.50;46.90;;;;;;5022396;28;20127;-68
2021/11/04 05:17:57;;;;;;;4.85;1.95;;;21.50;46.80;;;;;;5022250;28;20384;-68
2021/11/04 05:20:24;;;;;;;5.20;2.10;;;21.50;46.90;;;;;;5023548;28;20491;-67
2021/11/04 05:22:50;;;;;;;4.82;1.90;;;21.50;46.90;;;;;;5021886;28;20040;-67
2021/11/04 05:25:15;;;;;;;6.30;2.22;;;21.50;46.80;;;;;;5022389;28;20038;-68
2021/11/04 05:27:47;;;;;;;4.35;1.80;;;21.50;46.90;;;;;;5019944;28;20072;-68
2021/11/04 05:30:14;;;;;;;5.43;1.80;;;21.50;46.80;;;;;;5022335;28;20030;-68
2021/11/04 05:32:41;;;;;;;4.88;1.90;;;21.60;47.00;;;;;;5019165;28;20045;-68
2021/11/04 05:35:07;;;;;;;4.95;1.80;;;21.50;46.80;;;;;;5020312;28;20034;-68
2021/11/04 05:37:32;;;;;;;4.25;1.65;;;21.50;46.80;;;;;;5021440;28;20033;-67
2021/11/04 05:39:58;;;;;;;4.85;2.00;;;21.60;47.00;;;;;;5024785;28;20905;-68
2021/11/04 05:42:24;;;;;;;4.78;1.80;;;21.50;46.70;;;;;;5018904;28;20099;-68
2021/11/04 05:44:53;;;;;;;4.05;1.48;;;21.50;46.80;;;;;;5022797;28;20042;-68
2021/11/04 05:47:18;;;;;;;4.40;1.70;;;21.60;46.80;;;;;;5030332;28;20037;-68
2021/11/04 05:49:44;;;;;;;4.38;1.63;;;21.60;46.90;;;;;;5022080;28;20080;-68
2021/11/04 05:52:10;;;;;;;5.50;2.00;;;21.60;47.60;;;;;;5021256;28;20046;-68
2021/11/04 05:54:37;;;;;;;8.75;2.58;;;21.60;47.60;;;;;;5021038;28;20138;-68
2021/11/04 05:57:03;;;;;;;8.98;2.50;;;21.60;48.20;;;;;;5020274;28;20060;-68
2021/11/04 05:59:28;;;;;;;5.45;2.00;;;21.60;47.60;;;;;;5021492;28;20068;-69
2021/11/04 06:01:55;;;;;;;9.98;2.55;;;21.50;47.50;;;;;;5018800;28;20037;-68
2021/11/04 06:04:21;;;;;;;12.77;2.13;;;21.60;48.20;;;;;;5022051;28;20049;-68
2021/11/04 06:06:47;;;;;;;8.23;2.08;;;21.60;48.00;;;;;;5021977;28;20052;-68
2021/11/04 06:09:13;;;;;;;7.53;2.40;;;21.60;47.90;;;;;;5020528;28;20048;-68
2021/11/04 06:11:39;;;;;;;8.07;1.95;;;21.60;47.90;;;;;;5023426;28;20062;-68
2021/11/04 06:14:05;;;;;;;6.25;1.90;;;21.60;47.90;;;;;;5019591;28;20045;-68
2021/11/04 06:16:31;;;;;;;7.32;1.88;;;21.60;47.90;;;;;;5021844;28;20072;-68
2021/11/04 06:18:56;;;;;;;5.13;1.98;;;21.60;47.90;;;;;;5018128;28;20096;-67
2021/11/04 06:21:23;;;;;;;7.13;2.20;;;21.60;47.90;;;;;;5020741;28;20060;-68
2021/11/04 06:23:49;;;;;;;7.78;2.67;;;21.60;47.90;;;;;;5021777;28;20143;-68
2021/11/04 06:26:15;;;;;;;8.00;2.13;;;21.60;47.90;;;;;;5017505;28;20072;-67
2021/11/04 06:28:41;;;;;;;9.95;2.38;;;21.60;48.90;;;;;;5022442;28;20034;-74
2021/11/04 06:31:07;;;;;;;23.67;4.30;;;21.60;49.30;;;;;;5021911;28;20041;-77
2021/11/04 06:33:33;;;;;;;23.08;4.07;;;21.70;50.50;;;;;;5017986;28;20033;-74
2021/11/04 06:35:59;;;;;;;24.98;4.13;;;21.70;50.80;;;;;;5019033;28;20159;-71
2021/11/04 06:38:24;;;;;;;25.60;4.15;;;21.80;51.40;;;;;;5015649;28;20054;-75
2021/11/04 06:40:50;;;;;;;34.78;9.23;;;21.80;51.50;;;;;;5021531;28;20561;-76
2021/11/04 06:43:17;;;;;;;48.38;8.00;;;21.80;49.20;;;;;;5018535;28;20041;-77
2021/11/04 06:45:48;;;;;;;28.63;6.95;;;21.80;49.60;;;;;;5021426;28;20036;-77
2021/11/04 06:48:23;;;;;;;22.10;6.65;;;21.80;49.70;;;;;;5017831;28;20042;-77
2021/11/04 06:50:50;;;;;;;25.98;10.00;;;21.90;49.20;;;;;;5022419;28;20037;-74
2021/11/04 06:53:20;;;;;;;22.77;11.82;;;21.90;46.40;;;;;;5022071;28;20045;-71
2021/11/04 06:55:47;;;;;;;18.10;9.00;;;21.80;44.20;;;;;;5020030;28;20115;-74
2021/11/04 06:58:15;;;;;;;15.95;8.65;;;21.70;44.80;;;;;;5018215;28;20084;-74
2021/11/04 07:00:47;;;;;;;18.15;8.32;;;21.80;45.30;;;;;;5018984;28;20037;-73
2021/11/04 07:03:23;;;;;;;15.52;7.78;;;21.70;45.80;;;;;;5025738;28;20038;-73
2021/11/04 07:05:56;;;;;;;16.52;6.93;;;21.70;46.50;;;;;;5018565;28;20060;-73
2021/11/04 07:08:23;;;;;;;16.58;6.57;;;21.70;47.10;;;;;;5018289;28;20069;-74
2021/11/04 07:10:57;;;;;;;15.95;6.03;;;21.80;47.60;;;;;;5015363;28;20525;-74
2021/11/04 07:13:24;;;;;;;14.23;5.80;;;21.80;47.90;;;;;;5021497;28;20064;-73
2021/11/04 07:15:50;;;;;;;13.77;5.13;;;21.80;48.20;;;;;;5022405;28;20457;-74
2021/11/04 07:18:19;;;;;;;15.05;5.05;;;21.80;48.40;;;;;;5019719;28;20045;-75
2021/11/04 07:20:50;;;;;;;13.02;4.30;;;21.80;48.80;;;;;;5017239;28;20045;-73
2021/11/04 07:23:24;;;;;;;9.75;3.90;;;21.90;48.70;;;;;;5022687;28;20049;-74
2021/11/04 07:25:57;;;;;;;10.05;3.72;;;21.90;49.20;;;;;;5017412;28;20041;-74
2021/11/04 07:28:26;;;;;;;15.52;3.55;;;22.00;49.50;;;;;;5016987;28;20111;-72
2021/11/04 07:30:55;;;;;;;14.77;3.60;;;22.00;49.70;;;;;;5021163;28;20060;-75
2021/11/04 07:33:23;;;;;;;10.48;3.50;;;22.10;49.70;;;;;;5021302;28;20092;-72
2021/11/04 07:35:52;;;;;;;9.23;3.00;;;22.20;49.90;;;;;;5016676;28;20033;-75
2021/11/04 07:38:21;;;;;;;10.05;2.97;;;22.30;50.20;;;;;;5019690;28;20046;-73
2021/11/04 07:40:49;;;;;;;30.98;3.58;;;22.30;49.90;;;;;;5016315;28;20120;-75
2021/11/04 07:43:17;;;;;;;8.13;3.00;;;22.40;50.00;;;;;;5021011;28;20038;-74
2021/11/04 07:45:42;;;;;;;7.70;3.22;;;22.40;49.80;;;;;;5014450;28;20073;-77
2021/11/04 07:48:08;;;;;;;8.75;2.63;;;22.50;50.30;;;;;;5020268;28;20068;-77
2021/11/04 07:50:34;;;;;;;8.75;2.80;;;22.50;49.70;;;;;;5023026;28;20046;-77
2021/11/04 07:53:00;;;;;;;6.90;2.70;;;22.50;49.70;;;;;;5016343;28;20056;-77
2021/11/04 07:55:26;;;;;;;8.15;3.03;;;22.60;49.70;;;;;;5018240;28;20042;-75
2021/11/04 07:57:52;;;;;;;9.07;2.85;;;22.60;49.60;;;;;;5024518;28;20040;-72
2021/11/04 08:00:20;;;;;;;7.68;2.72;;;22.60;49.50;;;;;;5026839;28;20033;-72
2021/11/04 08:02:46;;;;;;;6.93;2.88;;;22.60;50.00;;;;;;5011864;28;20040;-74
2021/11/04 08:05:14;;;;;;;7.10;2.47;;;22.70;49.60;;;;;;5017192;28;20055;-73
2021/11/04 08:07:40;;;;;;;6.53;2.50;;;22.70;49.50;;;;;;5020393;28;20103;-73
2021/11/04 08:10:08;;;;;;;10.77;5.47;;;22.70;49.40;;;;;;5018615;28;20092;-74
2021/11/04 08:12:34;;;;;;;12.18;5.97;;;22.70;48.10;;;;;;5018960;28;20038;-74
2021/11/04 08:15:03;;;;;;;15.32;6.30;;;22.60;46.80;;;;;;5017040;28;20042;-74
2021/11/04 08:17:28;;;;;;;14.50;5.75;;;22.50;46.50;;;;;;5020332;28;20042;-74
2021/11/04 08:19:54;;;;;;;18.67;6.80;;;22.50;46.60;;;;;;5025637;28;20548;-74
2021/11/04 08:22:20;;;;;;;13.60;5.93;;;22.40;46.10;;;;;;5031378;28;20056;-73
2021/11/04 08:24:47;;;;;;;16.17;4.85;;;22.30;46.50;;;;;;5021581;28;20795;-75
2021/11/04 08:27:14;;;;;;;15.10;5.20;;;22.30;47.10;;;;;;5024901;28;20557;-75
2021/11/04 08:29:40;;;;;;;23.90;6.07;;;22.30;47.40;;;;;;5025003;28;20664;-75
2021/11/04 08:32:08;;;;;;;14.80;4.57;;;22.30;48.60;;;;;;5021079;28;20048;-77
2021/11/04 08:34:34;;;;;;;13.65;4.10;;;22.40;48.00;;;;;;5021349;28;20591;-76
2021/11/04 08:37:00;;;;;;;10.82;3.83;;;22.40;47.80;;;;;;5036745;28;20057;-77
2021/11/04 08:39:27;;;;;;;8.80;3.78;;;22.40;47.60;;;;;;5027769;28;20045;-75
2021/11/04 08:41:53;;;;;;;14.15;3.50;;;22.40;47.70;;;;;;5020227;28;20545;-76
2021/11/04 08:44:20;;;;;;;9.30;3.60;;;22.40;47.50;;;;;;5021142;28;20069;-75
2021/11/04 08:46:47;;;;;;;11.52;3.38;;;22.50;47.60;;;;;;5022299;28;20045;-76
2021/11/04 08:49:13;;;;;;;9.00;3.33;;;22.50;48.70;;;;;;5021883;28;20025;-76
2021/11/04 08:51:39;;;;;;;18.65;3.20;;;22.40;48.40;;;;;;5020968;28;20167;-74
2021/11/04 08:54:04;;;;;;;9.90;3.05;;;22.40;48.10;;;;;;5018045;28;20099;-74
2021/11/04 08:56:30;;;;;;;7.88;2.88;;;22.50;48.40;;;;;;5027299;28;20515;-75
2021/11/04 08:58:56;;;;;;;6.72;2.92;;;22.40;48.50;;;;;;5024800;28;20497;-75
2021/11/04 09:01:22;;;;;;;6.43;2.72;;;22.40;48.40;;;;;;5023035;28;20046;-75
2021/11/04 09:03:48;;;;;;;7.63;2.75;;;22.40;48.20;;;;;;5021953;28;20052;-76
2021/11/04 09:06:14;;;;;;;8.30;2.42;;;22.40;48.50;;;;;;5037252;28;20046;-75
2021/11/04 09:08:39;;;;;;;8.43;2.83;;;22.40;48.70;;;;;;5021679;28;20032;-75
2021/11/04 09:11:05;;;;;;;8.90;2.47;;;22.30;48.70;;;;;;5020031;28;20511;-75
2021/11/04 09:13:32;;;;;;;8.95;2.42;;;22.40;49.00;;;;;;5022962;28;20573;-73
2021/11/04 09:15:58;;;;;;;7.00;2.40;;;22.40;49.50;;;;;;5022656;28;20052;-75
2021/11/04 09:18:23;;;;;;;6.55;2.55;;;22.40;48.90;;;;;;5023504;28;20038;-74
2021/11/04 09:20:49;;;;;;;8.65;2.28;;;22.40;49.10;;;;;;5017053;28;20536;-77
2021/11/04 09:23:15;;;;;;;5.93;2.33;;;22.40;49.10;;;;;;5022634;28;20060;-74
2021/11/04 09:25:41;;;;;;;5.82;2.50;;;22.40;49.00;;;;;;5022496;28;20045;-75
2021/11/04 09:28:06;;;;;;;7.82;2.90;;;22.50;49.10;;;;;;5024366;28;20052;-76
2021/11/04 09:30:32;;;;;;;7.55;2.00;;;22.40;48.90;;;;;;5021233;28;20040;-77
2021/11/04 09:32:58;;;;;;;7.22;2.75;;;22.40;49.00;;;;;;5025250;28;20060;-75
2021/11/04 09:35:25;;;;;;;9.10;2.30;;;22.50;48.90;;;;;;5032371;28;20068;-75
2021/11/04 09:37:51;;;;;;;8.90;2.17;;;22.50;49.30;;;;;;5019524;28;20497;-76
2021/11/04 09:40:17;;;;;;;7.25;2.25;;;22.50;49.50;;;;;;5034201;28;20039;-78
2021/11/04 09:42:45;;;;;;;7.25;2.50;;;22.50;49.40;;;;;;5024245;28;20068;-77
2021/11/04 09:45:11;;;;;;;7.57;2.10;;;22.50;49.30;;;;;;5026160;28;20037;-75
2021/11/04 09:47:36;;;;;;;5.75;2.20;;;22.50;49.50;;;;;;5024203;28;20095;-74
2021/11/04 09:50:28;;;;;;;5.53;2.00;;;22.50;50.10;;;;;;5033633;28;20029;-77
2021/11/04 09:52:55;;;;;;;6.03;2.22;;;22.50;49.50;;;;;;5022579;28;20120;-75
2021/11/04 09:55:25;;;;;;;6.32;2.00;;;22.50;49.70;;;;;;5023695;28;20042;-76
2021/11/04 09:57:56;;;;;;;6.65;2.42;;;22.50;49.70;;;;;;5022810;28;20044;-76
2021/11/04 10:00:32;;;;;;;5.72;2.10;;;22.50;49.30;;;;;;5035627;28;20064;-76
2021/11/04 10:03:07;;;;;;;7.75;4.07;;;22.40;49.70;;;;;;5023309;28;20088;-74
2021/11/04 10:05:47;;;;;;;10.00;4.13;;;22.40;46.40;;;;;;5023247;28;20080;-73
2021/11/04 10:08:19;;;;;;;7.38;3.67;;;22.30;46.70;;;;;;5019690;28;20030;-73
2021/11/04 10:10:45;;;;;;;9.10;3.45;;;22.40;47.00;;;;;;5020141;28;20045;-71
2021/11/04 10:13:12;;;;;;;8.63;3.22;;;22.40;47.10;;;;;;5026327;28;20074;-72
2021/11/04 10:15:39;;;;;;;9.07;2.80;;;22.50;47.40;;;;;;5037741;28;20045;-72
2021/11/04 10:18:18;;;;;;;8.70;2.78;;;22.50;47.60;;;;;;5016753;28;20072;-72
2021/11/04 10:20:54;;;;;;;8.15;2.42;;;22.60;47.90;;;;;;5020892;28;20728;-72
2021/11/04 10:23:20;;;;;;;6.45;2.45;;;22.60;47.70;;;;;;5018974;28;20033;-71
2021/11/04 10:25:47;;;;;;;6.07;2.25;;;22.70;48.00;;;;;;5022072;28;20044;-74
2021/11/04 10:28:26;;;;;;;8.00;2.70;;;22.70;48.00;;;;;;5032704;28;20129;-73
2021/11/04 10:30:52;;;;;;;6.75;2.75;;;22.80;48.90;;;;;;5019721;28;20502;-70
2021/11/04 10:33:25;;;;;;;5.63;2.20;;;22.80;48.10;;;;;;5018133;28;20096;-71
2021/11/04 10:35:56;;;;;;;11.10;2.40;;;22.80;48.00;;;;;;5020582;28;20057;-70
2021/11/04 10:38:35;;;;;;;8.05;2.20;;;22.90;48.10;;;;;;5020960;28;20041;-71
2021/11/04 10:41:12;;;;;;;5.82;2.28;;;22.90;48.10;;;;;;5024694;28;20761;-71
2021/11/04 10:43:39;;;;;;;6.40;2.33;;;22.90;48.20;;;;;;5019931;28;20095;-70
2021/11/04 10:46:11;;;;;;;5.25;2.20;;;22.90;48.10;;;;;;5017729;28;20038;-73
2021/11/04 10:48:44;;;;;;;5.47;2.30;;;23.00;48.20;;;;;;5022260;28;20188;-72
2021/11/04 10:51:18;;;;;;;7.45;2.13;;;23.00;48.20;;;;;;5019240;28;20037;-72
2021/11/04 10:53:57;;;;;;;5.82;2.13;;;23.00;48.20;;;;;;5016248;28;20050;-71
2021/11/04 10:56:24;;;;;;;12.55;2.33;;;23.00;48.20;;;;;;5018207;28;20064;-71
2021/11/04 10:58:55;;;;;;;7.88;2.10;;;23.00;48.20;;;;;;5018162;28;20030;-70
2021/11/04 11:01:25;;;;;;;10.13;2.15;;;23.00;48.10;;;;;;5020679;28;20107;-69
2021/11/04 11:04:01;;;;;;;6.57;2.10;;;23.00;48.10;;;;;;5023478;28;20052;-71
2021/11/04 11:06:28;;;;;;;5.97;2.22;;;23.10;48.30;;;;;;5019147;28;20037;-73
2021/11/04 11:08:55;;;;;;;4.90;1.80;;;23.10;48.30;;;;;;5020825;28;20030;-72
2021/11/04 11:11:21;;;;;;;5.43;2.15;;;23.10;48.30;;;;;;5023911;28;20617;-70
2021/11/04 11:13:47;;;;;;;10.45;2.20;;;23.10;48.50;;;;;;5020918;28;20056;-73
2021/11/04 11:16:15;;;;;;;11.55;2.45;;;23.10;48.20;;;;;;5017493;28;20033;-71
2021/11/04 11:18:41;;;;;;;6.22;1.85;;;23.20;48.50;;;;;;5020858;28;20084;-74
2021/11/04 11:21:08;;;;;;;16.65;2.72;;;23.20;48.40;;;;;;5021087;28;20059;-74
2021/11/04 11:23:34;;;;;;;18.83;2.30;;;23.20;48.40;;;;;;5022346;28;20509;-75
2021/11/04 11:26:02;;;;;;;6.72;2.35;;;23.20;48.30;;;;;;5018887;28;20041;-75
2021/11/04 11:28:30;;;;;;;6.95;2.20;;;23.30;48.40;;;;;;5020817;28;20041;-73
2021/11/04 11:31:09;;;;;;;5.32;2.00;;;23.30;48.50;;;;;;5021658;28;20030;-73
2021/11/04 11:33:40;;;;;;;5.32;2.10;;;23.20;48.50;;;;;;5018216;28;20038;-74
2021/11/04 11:36:26;;;;;;;7.20;2.22;;;23.20;48.50;;;;;;5020135;28;20053;-75
2021/11/04 11:38:58;;;;;;;7.75;2.15;;;23.20;48.70;;;;;;5023542;28;20504;-74
2021/11/04 11:41:28;;;;;;;5.18;1.73;;;23.20;48.60;;;;;;5021627;28;20030;-75
2021/11/04 11:43:57;;;;;;;6.20;2.10;;;23.20;48.50;;;;;;5020064;28;20041;-73
2021/11/04 11:46:23;;;;;;;6.72;2.33;;;23.20;48.60;;;;;;5021224;28;20906;-75
2021/11/04 11:49:12;;;;;;;7.18;2.03;;;23.20;48.40;;;;;;5013898;28;20068;-74
2021/11/04 11:51:57;;;;;;;5.40;2.08;;;23.20;49.00;;;;;;5018714;28;20060;-74
2021/11/04 11:54:41;;;;;;;8.55;2.00;;;23.20;48.40;;;;;;5015506;28;20115;-73
2021/11/04 11:57:13;;;;;;;5.63;2.23;;;23.20;48.40;;;;;;5021140;28;20052;-74
2021/11/04 11:59:51;;;;;;;5.93;2.17;;;23.20;48.30;;;;;;5027221;28;20273;-76
2021/11/04 12:02:41;;;;;;;5.32;2.03;;;23.30;48.50;;;;;;5020772;28;20061;-74
2021/11/04 12:05:22;;;;;;;11.90;2.03;;;23.30;48.50;;;;;;5038496;28;20026;-72
2021/11/04 12:07:49;;;;;;;5.68;2.13;;;23.30;48.40;;;;;;5023078;28;20065;-74
2021/11/04 12:10:36;;;;;;;7.75;2.15;;;23.30;48.40;;;;;;5028350;28;20045;-74
2021/11/04 12:13:03;;;;;;;5.53;2.00;;;23.30;48.30;;;;;;5012392;28;20033;-72
2021/11/04 12:15:29;;;;;;;4.72;1.80;;;23.30;48.30;;;;;;5020411;28;20041;-70
2021/11/04 12:18:17;;;;;;;5.80;2.03;;;23.30;48.30;;;;;;5034838;28;20038;-73
2021/11/04 12:20:53;;;;;;;5.60;2.10;;;23.30;48.30;;;;;;5020991;28;20977;-74
2021/11/04 12:23:20;;;;;;;15.55;2.13;;;23.30;48.20;;;;;;5018159;28;20065;-73
2021/11/04 12:25:47;;;;;;;10.32;1.98;;;23.30;48.40;;;;;;5018369;28;20057;-72
2021/11/04 12:28:14;;;;;;;7.47;1.70;;;23.30;48.50;;;;;;5021078;28;20048;-74
2021/11/04 12:30:39;;;;;;;8.70;1.88;;;23.30;48.90;;;;;;5019584;28;20046;-75
2021/11/04 12:33:10;;;;;;;8.63;2.13;;;23.20;48.80;;;;;;5025047;28;20048;-73
2021/11/04 12:35:46;;;;;;;7.60;1.90;;;23.10;48.80;;;;;;5026443;28;20041;-75
2021/11/04 12:38:39;;;;;;;6.32;1.70;;;23.00;48.90;;;;;;5017144;28;20029;-73
2021/11/04 12:41:07;;;;;;;8.68;2.00;;;23.00;49.20;;;;;;5029778;28;20067;-73
2021/11/04 12:43:34;;;;;;;5.53;1.77;;;23.00;49.10;;;;;;5014702;28;20041;-75
2021/11/04 12:46:18;;;;;;;8.88;1.65;;;23.00;49.00;;;;;;5022417;28;20034;-73
2021/11/04 12:48:49;;;;;;;6.40;1.90;;;22.90;49.20;;;;;;5022774;28;20047;-74
2021/11/04 12:51:16;;;;;;;6.25;1.70;;;22.90;49.30;;;;;;5021350;28;20096;-74